Time;durP1;ratioP1;P1;durP2;ratioP2;P2;SDS_P1;SDS_P2;PMS_P1;PMS_P2;Temp;Humidity;BMP_temperature;BMP_pressure;BME280_temperature;BME280_humidity;BME280_pressure;Samples;Min_cycle;Max_cycle;Signal;HPM_P1;HPM_P2
2024/03/13 00:02:11;;;;;;;9.75;6.05;;;;;;;;;;4979458;28;20363;-80
2024/03/13 00:04:43;;;;;;;8.20;5.13;;;;;;;;;;4962475;28;20057;-80
2024/03/13 00:07:10;;;;;;;8.65;5.43;;;;;;;;;;4979112;28;20510;-80
2024/03/13 00:09:46;;;;;;;9.60;5.72;;;;;;;;;;4963122;28;20058;-80
2024/03/13 00:12:16;;;;;;;9.63;4.93;;;;;;;;;;4963951;28;20081;-80
2024/03/13 00:14:46;;;;;;;7.57;4.90;;;;;;;;;;4964146;28;20059;-80
2024/03/13 00:17:13;;;;;;;6.82;4.30;;;;;;;;;;4979347;28;20130;-80
2024/03/13 00:19:39;;;;;;;8.90;5.15;;;;;;;;;;4963066;28;20557;-81
2024/03/13 00:22:06;;;;;;;6.93;4.53;;;;;;;;;;4978457;28;20137;-80
2024/03/13 00:24:32;;;;;;;6.50;4.45;;;;;;;;;;4978374;28;20101;-81
2024/03/13 00:26:59;;;;;;;4.95;3.70;;;;;;;;;;4978492;28;20102;-81
2024/03/13 00:29:26;;;;;;;10.25;5.00;;;;;;;;;;4962719;28;20054;-79
2024/03/13 00:31:53;;;;;;;6.13;4.20;;;;;;;;;;4977700;28;20083;-79
2024/03/13 00:34:20;;;;;;;5.00;3.72;;;;;;;;;;4978683;28;20137;-80
2024/03/13 00:36:47;;;;;;;4.45;3.22;;;;;;;;;;4962770;28;20058;-79
2024/03/13 00:39:15;;;;;;;5.68;3.25;;;;;;;;;;4962662;28;20428;-79
2024/03/13 00:41:41;;;;;;;5.80;3.80;;;;;;;;;;4962124;28;20055;-79
2024/03/13 00:44:09;;;;;;;3.85;2.53;;;;;;;;;;4978675;28;20082;-79
2024/03/13 00:46:35;;;;;;;5.40;2.97;;;;;;;;;;4978102;28;20051;-80
2024/03/13 00:49:02;;;;;;;5.63;2.30;;;;;;;;;;4961181;28;20074;-80
2024/03/13 00:51:31;;;;;;;3.47;1.98;;;;;;;;;;4977504;28;20070;-79
2024/03/13 00:53:58;;;;;;;4.57;2.00;;;;;;;;;;4977794;28;20094;-80
2024/03/13 00:56:29;;;;;;;4.68;2.10;;;;;;;;;;4978136;28;20450;-79
2024/03/13 00:58:56;;;;;;;4.05;1.90;;;;;;;;;;4978224;28;20058;-79
2024/03/13 01:01:22;;;;;;;4.45;1.70;;;;;;;;;;4976536;28;20051;-79
2024/03/13 01:03:49;;;;;;;3.72;1.52;;;;;;;;;;4976739;28;20054;-79
2024/03/13 01:06:19;;;;;;;4.45;2.30;;;;;;;;;;4961248;28;20054;-79
2024/03/13 01:08:46;;;;;;;2.90;1.70;;;;;;;;;;4977903;28;20612;-79
2024/03/13 01:11:13;;;;;;;1.88;1.50;;;;;;;;;;4976826;28;20531;-79
2024/03/13 01:13:39;;;;;;;1.70;1.58;;;;;;;;;;4979928;28;20055;-79
2024/03/13 01:16:07;;;;;;;2.83;1.60;;;;;;;;;;4975656;28;20133;-81
2024/03/13 01:18:34;;;;;;;1.05;0.95;;;;;;;;;;4960686;28;20058;-81
2024/03/13 01:21:01;;;;;;;1.50;1.33;;;;;;;;;;4976388;28;20097;-81
2024/03/13 01:23:27;;;;;;;1.60;1.35;;;;;;;;;;4959025;28;20554;-81
2024/03/13 01:25:57;;;;;;;1.17;1.00;;;;;;;;;;4976382;28;20454;-80
2024/03/13 01:28:24;;;;;;;4.15;1.30;;;;;;;;;;4977121;28;20051;-80
2024/03/13 01:30:50;;;;;;;2.50;1.38;;;;;;;;;;4961214;28;20054;-81
2024/03/13 01:33:17;;;;;;;2.22;1.10;;;;;;;;;;4965234;28;20094;-80
2024/03/13 01:35:43;;;;;;;1.60;1.30;;;;;;;;;;4980459;28;20109;-81
2024/03/13 01:38:10;;;;;;;2.10;1.65;;;;;;;;;;4977128;28;20086;-81
2024/03/13 01:57:29;;;;;;;1.52;0.98;;;;;;;;;;4991474;28;20059;-82
2024/03/13 02:02:40;;;;;;;0.85;0.70;;;;;;;;;;4994720;28;20061;-82
2024/03/13 02:05:07;;;;;;;1.75;1.10;;;;;;;;;;4996626;28;20074;-82
2024/03/13 02:07:34;;;;;;;2.67;1.00;;;;;;;;;;5001710;28;20046;-82
2024/03/13 02:10:00;;;;;;;1.25;0.80;;;;;;;;;;4997882;28;20061;-82
2024/03/13 02:12:27;;;;;;;1.05;0.95;;;;;;;;;;4997136;28;20081;-82
2024/03/13 02:14:54;;;;;;;1.45;0.90;;;;;;;;;;4996436;28;20081;-82
2024/03/13 02:17:21;;;;;;;0.63;0.60;;;;;;;;;;4997133;28;20611;-83
2024/03/13 02:19:48;;;;;;;1.05;0.70;;;;;;;;;;4996073;28;20059;-82
2024/03/13 02:22:14;;;;;;;1.00;0.93;;;;;;;;;;4996267;28;20056;-83
2024/03/13 02:24:41;;;;;;;1.02;0.80;;;;;;;;;;4996729;28;20058;-83
2024/03/13 02:27:10;;;;;;;1.00;0.70;;;;;;;;;;4996331;28;20478;-82
2024/03/13 02:29:38;;;;;;;1.15;0.80;;;;;;;;;;4996635;28;20051;-83
2024/03/13 02:32:05;;;;;;;1.63;0.98;;;;;;;;;;4995806;28;20050;-80
2024/03/13 02:34:31;;;;;;;1.40;0.82;;;;;;;;;;4994983;28;20062;-78
2024/03/13 02:36:58;;;;;;;1.27;1.05;;;;;;;;;;4994185;28;20125;-78
2024/03/13 02:39:26;;;;;;;0.80;0.80;;;;;;;;;;4993821;28;20054;-78
2024/03/13 02:41:53;;;;;;;1.48;0.75;;;;;;;;;;4993279;28;20060;-80
2024/03/13 02:44:21;;;;;;;1.60;0.82;;;;;;;;;;4979764;28;20129;-80
2024/03/13 02:46:49;;;;;;;1.67;0.90;;;;;;;;;;4980215;28;20133;-79
2024/03/13 02:49:16;;;;;;;0.93;0.85;;;;;;;;;;4987796;28;20137;-80
2024/03/13 02:51:43;;;;;;;0.82;0.47;;;;;;;;;;4975764;28;20047;-80
2024/03/13 02:54:10;;;;;;;1.15;0.60;;;;;;;;;;4986973;28;20594;-80
2024/03/13 02:56:39;;;;;;;0.70;0.47;;;;;;;;;;4983027;28;20560;-79
2024/03/13 02:59:07;;;;;;;0.50;0.50;;;;;;;;;;4983760;28;20215;-80
2024/03/13 03:01:34;;;;;;;1.75;0.63;;;;;;;;;;4992301;28;20063;-82
2024/03/13 03:04:01;;;;;;;3.45;0.90;;;;;;;;;;4980685;28;20109;-80
2024/03/13 03:06:28;;;;;;;0.65;0.50;;;;;;;;;;4983688;28;20051;-80
2024/03/13 03:08:57;;;;;;;1.60;0.60;;;;;;;;;;4991766;28;20051;-79
2024/03/13 03:11:25;;;;;;;1.30;0.82;;;;;;;;;;4994113;28;20055;-79
2024/03/13 03:13:53;;;;;;;2.95;0.68;;;;;;;;;;4996241;28;20463;-79
2024/03/13 03:16:20;;;;;;;0.60;0.60;;;;;;;;;;4993426;28;20066;-79
2024/03/13 03:18:49;;;;;;;0.65;0.65;;;;;;;;;;4982360;28;20502;-79
2024/03/13 03:21:17;;;;;;;0.60;0.60;;;;;;;;;;4992414;28;20132;-79
2024/03/13 03:23:44;;;;;;;0.65;0.60;;;;;;;;;;4990381;28;20050;-79
2024/03/13 03:26:16;;;;;;;1.00;0.73;;;;;;;;;;4990188;28;20050;-79
2024/03/13 03:28:43;;;;;;;0.60;0.50;;;;;;;;;;4991132;28;20061;-79
2024/03/13 03:31:10;;;;;;;0.50;0.50;;;;;;;;;;4987059;28;20043;-79
2024/03/13 03:33:37;;;;;;;0.50;0.50;;;;;;;;;;4992382;28;20472;-79
2024/03/13 03:36:05;;;;;;;0.52;0.40;;;;;;;;;;4991824;28;20055;-79
2024/03/13 03:38:32;;;;;;;1.10;0.77;;;;;;;;;;4992174;28;20137;-79
2024/03/13 03:40:59;;;;;;;1.10;0.90;;;;;;;;;;5008449;28;20069;-79
2024/03/13 03:43:27;;;;;;;1.25;0.60;;;;;;;;;;4991569;28;20146;-79
2024/03/13 03:45:54;;;;;;;4.35;0.75;;;;;;;;;;4981156;28;20055;-79
2024/03/13 03:48:22;;;;;;;1.00;0.75;;;;;;;;;;4981986;28;20050;-79
2024/03/13 03:50:49;;;;;;;1.48;0.80;;;;;;;;;;4994439;28;20285;-80
2024/03/13 03:53:16;;;;;;;0.70;0.70;;;;;;;;;;4994193;28;20097;-80
2024/03/13 03:55:43;;;;;;;0.95;0.80;;;;;;;;;;4994373;28;20701;-80
2024/03/13 03:58:10;;;;;;;0.57;0.57;;;;;;;;;;4993840;28;20054;-79
2024/03/13 04:00:37;;;;;;;0.82;0.60;;;;;;;;;;4983965;28;20147;-79
2024/03/13 04:03:09;;;;;;;1.08;0.70;;;;;;;;;;4992540;28;20172;-80
2024/03/13 04:05:36;;;;;;;0.50;0.40;;;;;;;;;;4989733;28;20062;-79
2024/03/13 04:08:04;;;;;;;1.40;0.85;;;;;;;;;;4976656;28;20046;-79
2024/03/13 04:10:31;;;;;;;1.52;0.93;;;;;;;;;;4961337;28;20492;-79
2024/03/13 04:12:59;;;;;;;1.52;0.88;;;;;;;;;;4960501;28;20129;-80
2024/03/13 04:15:26;;;;;;;1.08;0.60;;;;;;;;;;4956244;28;20114;-80
2024/03/13 04:17:56;;;;;;;0.57;0.55;;;;;;;;;;4961442;28;20117;-80
2024/03/13 04:20:29;;;;;;;0.82;0.70;;;;;;;;;;4977883;28;20090;-79
2024/03/13 04:22:57;;;;;;;0.90;0.80;;;;;;;;;;4977104;28;20058;-79
2024/03/13 04:25:24;;;;;;;5.05;1.05;;;;;;;;;;4960841;28;20082;-79
2024/03/13 04:27:54;;;;;;;2.97;0.80;;;;;;;;;;4961388;28;20097;-79
2024/03/13 04:30:26;;;;;;;1.05;0.60;;;;;;;;;;4960130;28;20109;-79
2024/03/13 04:32:57;;;;;;;1.10;0.70;;;;;;;;;;4986384;28;20460;-79
2024/03/13 04:35:24;;;;;;;2.00;0.85;;;;;;;;;;4976457;28;20057;-79
2024/03/13 04:37:51;;;;;;;0.65;0.60;;;;;;;;;;4960116;28;20090;-79
2024/03/13 04:40:19;;;;;;;0.95;0.90;;;;;;;;;;4959208;28;20055;-79
2024/03/13 04:42:49;;;;;;;0.80;0.65;;;;;;;;;;4960224;28;20051;-79
2024/03/13 04:45:17;;;;;;;2.15;0.60;;;;;;;;;;4974465;28;20071;-79
2024/03/13 04:47:44;;;;;;;0.55;0.55;;;;;;;;;;4976145;28;20057;-78
2024/03/13 04:50:11;;;;;;;2.40;0.55;;;;;;;;;;4975572;28;20472;-79
2024/03/13 04:52:38;;;;;;;0.93;0.60;;;;;;;;;;4974689;28;20058;-79
2024/03/13 04:55:08;;;;;;;0.90;0.80;;;;;;;;;;4959348;28;20117;-79
2024/03/13 04:57:35;;;;;;;1.30;0.50;;;;;;;;;;4973043;28;20117;-79
2024/03/13 05:00:04;;;;;;;1.60;1.00;;;;;;;;;;4957349;28;20078;-79
2024/03/13 05:02:31;;;;;;;1.00;0.73;;;;;;;;;;4959153;28;20054;-79
2024/03/13 05:04:58;;;;;;;1.60;1.42;;;;;;;;;;4974664;28;20055;-79
2024/03/13 05:07:27;;;;;;;1.70;1.27;;;;;;;;;;4969912;28;20102;-81
2024/03/13 05:09:54;;;;;;;3.28;1.27;;;;;;;;;;4956078;28;20058;-81
2024/03/13 05:12:25;;;;;;;2.10;1.33;;;;;;;;;;4974546;28;20129;-81
2024/03/13 05:14:54;;;;;;;2.58;1.30;;;;;;;;;;4955580;28;20441;-81
2024/03/13 05:17:21;;;;;;;1.38;1.08;;;;;;;;;;4974456;28;20054;-81
2024/03/13 05:19:54;;;;;;;1.70;1.10;;;;;;;;;;4958936;28;20051;-81
2024/03/13 05:22:21;;;;;;;2.35;1.48;;;;;;;;;;4958267;28;20058;-81
2024/03/13 05:24:49;;;;;;;2.97;1.65;;;;;;;;;;4974866;28;20043;-81
2024/03/13 05:27:16;;;;;;;18.98;9.52;;;;;;;;;;4958970;28;20254;-80
2024/03/13 05:29:52;;;;;;;15.27;9.48;;;;;;;;;;4973273;28;20046;-79
2024/03/13 05:32:25;;;;;;;7.63;4.05;;;;;;;;;;4974058;28;20054;-79
2024/03/13 05:34:58;;;;;;;1.90;1.80;;;;;;;;;;4982700;28;20113;-79
2024/03/13 05:37:25;;;;;;;2.83;2.17;;;;;;;;;;4974213;28;20047;-79
2024/03/13 05:40:01;;;;;;;2.05;1.80;;;;;;;;;;4958514;28;20473;-80
2024/03/13 05:42:35;;;;;;;2.13;1.63;;;;;;;;;;4977349;28;20544;-81
2024/03/13 05:45:07;;;;;;;1.75;1.60;;;;;;;;;;4977649;28;20061;-81
2024/03/13 05:47:41;;;;;;;2.13;1.92;;;;;;;;;;4965847;28;20054;-81
2024/03/13 05:50:10;;;;;;;2.65;2.10;;;;;;;;;;4975192;28;20055;-81
2024/03/13 05:52:37;;;;;;;3.60;2.60;;;;;;;;;;4971104;28;20065;-81
2024/03/13 05:55:18;;;;;;;2.72;2.22;;;;;;;;;;4960229;28;20537;-82
2024/03/13 05:57:51;;;;;;;4.68;2.00;;;;;;;;;;4971971;28;20042;-81
2024/03/13 06:00:19;;;;;;;5.25;2.22;;;;;;;;;;4974538;28;20055;-81
2024/03/13 06:02:47;;;;;;;3.90;1.85;;;;;;;;;;4959028;28;20059;-81
2024/03/13 06:05:16;;;;;;;5.13;2.78;;;;;;;;;;4958551;28;20047;-82
2024/03/13 06:07:46;;;;;;;6.03;2.90;;;;;;;;;;4961441;28;20079;-80
2024/03/13 06:10:14;;;;;;;5.75;2.10;;;;;;;;;;4975511;28;20065;-79
2024/03/13 06:12:41;;;;;;;2.30;1.75;;;;;;;;;;4978060;28;20062;-79
2024/03/13 06:15:12;;;;;;;4.95;1.80;;;;;;;;;;4976028;28;20057;-80
2024/03/13 06:17:39;;;;;;;3.63;1.98;;;;;;;;;;4960558;28;20102;-79
2024/03/13 06:20:13;;;;;;;2.67;1.58;;;;;;;;;;4982681;28;20057;-79
2024/03/13 06:22:42;;;;;;;3.35;1.42;;;;;;;;;;4975959;28;20146;-79
2024/03/13 06:25:13;;;;;;;3.13;1.75;;;;;;;;;;4959049;28;20074;-79
2024/03/13 06:27:41;;;;;;;2.47;2.17;;;;;;;;;;4974825;28;20138;-80
2024/03/13 06:30:13;;;;;;;4.65;3.08;;;;;;;;;;4975352;28;20118;-80
2024/03/13 06:32:40;;;;;;;7.35;2.40;;;;;;;;;;4974701;28;20056;-79
2024/03/13 06:35:10;;;;;;;3.40;1.48;;;;;;;;;;4959646;28;20057;-79
2024/03/13 06:37:38;;;;;;;2.80;1.70;;;;;;;;;;4974923;28;20051;-79
2024/03/13 06:40:05;;;;;;;2.13;1.40;;;;;;;;;;4959531;28;20533;-79
2024/03/13 06:42:33;;;;;;;2.25;1.40;;;;;;;;;;4958948;28;20069;-81
2024/03/13 06:45:00;;;;;;;3.70;1.45;;;;;;;;;;4958960;28;20058;-82
2024/03/13 06:47:27;;;;;;;2.90;1.48;;;;;;;;;;4959169;28;20115;-81
2024/03/13 06:49:54;;;;;;;1.92;1.20;;;;;;;;;;4982989;28;20479;-82
2024/03/13 06:52:21;;;;;;;2.60;1.85;;;;;;;;;;4960023;28;20082;-85
2024/03/13 06:54:49;;;;;;;3.95;2.53;;;;;;;;;;4971388;28;20047;-79
2024/03/13 06:57:16;;;;;;;9.00;5.97;;;;;;;;;;4970702;28;20121;-79
2024/03/13 06:59:44;;;;;;;4.32;2.45;;;;;;;;;;4972552;28;20429;-79
2024/03/13 07:02:14;;;;;;;1.45;1.35;;;;;;;;;;4971824;28;20054;-78
2024/03/13 07:04:49;;;;;;;1.20;1.10;;;;;;;;;;4952432;28;20065;-79
2024/03/13 07:07:23;;;;;;;1.13;1.00;;;;;;;;;;4967288;28;20049;-81
2024/03/13 07:09:53;;;;;;;1.20;1.13;;;;;;;;;;4966276;28;20829;-82
2024/03/13 07:12:24;;;;;;;3.60;1.40;;;;;;;;;;4974904;28;20047;-82
2024/03/13 07:14:51;;;;;;;2.70;1.52;;;;;;;;;;4958728;28;20062;-82
2024/03/13 07:17:18;;;;;;;1.85;1.55;;;;;;;;;;4975047;28;20054;-82
2024/03/13 07:19:52;;;;;;;2.83;2.08;;;;;;;;;;4961617;28;20085;-83
2024/03/13 07:22:19;;;;;;;2.03;1.60;;;;;;;;;;4979893;28;20090;-83
2024/03/13 07:24:50;;;;;;;2.42;1.17;;;;;;;;;;4981418;28;20054;-81
2024/03/13 07:27:20;;;;;;;2.17;1.50;;;;;;;;;;4982307;28;20067;-83
2024/03/13 07:29:49;;;;;;;1.30;1.10;;;;;;;;;;4984561;28;20531;-83
2024/03/13 07:32:16;;;;;;;2.42;1.30;;;;;;;;;;4965131;28;20078;-83
2024/03/13 07:34:46;;;;;;;1.55;1.33;;;;;;;;;;4980745;28;20047;-83
2024/03/13 07:37:13;;;;;;;1.23;1.13;;;;;;;;;;4980649;28;20509;-82
2024/03/13 07:39:40;;;;;;;1.95;1.00;;;;;;;;;;4979814;28;20058;-83
2024/03/13 07:42:10;;;;;;;3.55;1.02;;;;;;;;;;4982813;28;20488;-80
2024/03/13 07:44:37;;;;;;;2.22;1.30;;;;;;;;;;4964011;28;20069;-82
2024/03/13 07:47:04;;;;;;;1.00;0.90;;;;;;;;;;4966435;28;20512;-83
2024/03/13 07:49:32;;;;;;;1.27;0.93;;;;;;;;;;4982334;28;20413;-83
2024/03/13 07:52:01;;;;;;;1.73;1.15;;;;;;;;;;4981978;28;20092;-83
2024/03/13 07:54:29;;;;;;;1.40;1.30;;;;;;;;;;4980781;28;20054;-83
2024/03/13 07:56:56;;;;;;;2.10;1.40;;;;;;;;;;4963729;28;20588;-83
2024/03/13 07:59:25;;;;;;;1.38;1.27;;;;;;;;;;4981679;28;20078;-80
2024/03/13 08:01:52;;;;;;;1.88;1.50;;;;;;;;;;4979599;28;20146;-81
2024/03/13 08:04:21;;;;;;;3.38;2.22;;;;;;;;;;4987432;28;20055;-79
2024/03/13 08:06:53;;;;;;;4.38;3.08;;;;;;;;;;5009273;28;20035;-77
2024/03/13 08:09:38;;;;;;;2.60;2.40;;;;;;;;;;4976265;28;20037;-81
2024/03/13 08:12:24;;;;;;;2.63;2.20;;;;;;;;;;4961162;28;20046;-81
2024/03/13 08:15:09;;;;;;;2.60;2.08;;;;;;;;;;4981544;28;20146;-83
2024/03/13 08:17:53;;;;;;;2.90;2.22;;;;;;;;;;4966092;28;20171;-78
2024/03/13 08:20:38;;;;;;;3.25;2.10;;;;;;;;;;4983103;28;20101;-78
2024/03/13 08:23:22;;;;;;;3.15;2.38;;;;;;;;;;4981715;28;20046;-78
2024/03/13 08:26:08;;;;;;;3.35;2.58;;;;;;;;;;4967051;28;20050;-78
2024/03/13 08:28:52;;;;;;;2.60;2.40;;;;;;;;;;4979754;28;20046;-78
2024/03/13 08:31:41;;;;;;;5.75;3.10;;;;;;;;;;4976667;28;20053;-78
2024/03/13 08:34:31;;;;;;;4.22;2.25;;;;;;;;;;4979113;28;20046;-78
2024/03/13 08:37:16;;;;;;;4.43;2.58;;;;;;;;;;4981921;28;20608;-78
2024/03/13 08:40:00;;;;;;;5.93;2.75;;;;;;;;;;4980481;28;20065;-78
2024/03/13 08:42:45;;;;;;;2.42;2.15;;;;;;;;;;4980609;28;20105;-83
2024/03/13 08:45:29;;;;;;;7.43;2.53;;;;;;;;;;4984546;28;20046;-80
2024/03/13 08:48:13;;;;;;;2.47;2.20;;;;;;;;;;4985283;28;20042;-79
2024/03/13 08:50:59;;;;;;;3.92;2.08;;;;;;;;;;4985183;28;20045;-79
2024/03/13 08:53:47;;;;;;;3.60;2.10;;;;;;;;;;4984566;28;20045;-79
2024/03/13 08:56:42;;;;;;;2.88;2.35;;;;;;;;;;4984993;28;20131;-79
2024/03/13 08:59:28;;;;;;;2.90;1.75;;;;;;;;;;4968793;28;20065;-79
2024/03/13 09:02:13;;;;;;;2.25;2.03;;;;;;;;;;4982264;28;20045;-79
2024/03/13 09:04:57;;;;;;;2.25;2.05;;;;;;;;;;4987811;28;20041;-79
2024/03/13 09:07:42;;;;;;;4.50;2.30;;;;;;;;;;4988003;28;20046;-79
2024/03/13 09:10:12;;;;;;;3.22;2.45;;;;;;;;;;4987611;28;20059;-79
2024/03/13 09:12:40;;;;;;;2.42;1.95;;;;;;;;;;4981440;28;20066;-84
2024/03/13 09:15:19;;;;;;;3.83;2.10;;;;;;;;;;4962490;28;20101;-84
2024/03/13 09:17:47;;;;;;;2.42;2.17;;;;;;;;;;4957140;28;20059;-84
2024/03/13 09:20:15;;;;;;;2.55;2.08;;;;;;;;;;4963530;28;20051;-84
2024/03/13 09:22:42;;;;;;;2.80;2.22;;;;;;;;;;4958488;28;20117;-83
2024/03/13 09:25:11;;;;;;;2.40;2.10;;;;;;;;;;4974495;28;20073;-84
2024/03/13 09:27:38;;;;;;;2.95;2.13;;;;;;;;;;4956480;28;20055;-85
2024/03/13 09:30:08;;;;;;;3.00;2.20;;;;;;;;;;4958836;28;20054;-84
2024/03/13 09:32:38;;;;;;;3.83;2.47;;;;;;;;;;4975127;28;20053;-86
2024/03/13 09:35:09;;;;;;;2.17;2.00;;;;;;;;;;4958116;28;20059;-86
2024/03/13 09:37:37;;;;;;;2.95;2.28;;;;;;;;;;4954237;28;20086;-86
2024/03/13 09:40:10;;;;;;;3.80;2.20;;;;;;;;;;4958844;28;20101;-85
2024/03/13 09:42:37;;;;;;;4.53;2.40;;;;;;;;;;4973116;28;20078;-86
2024/03/13 09:45:07;;;;;;;4.93;1.88;;;;;;;;;;4959324;28;20082;-84
2024/03/13 09:47:34;;;;;;;3.17;2.30;;;;;;;;;;4968082;28;20051;-87
2024/03/13 09:50:05;;;;;;;2.35;1.95;;;;;;;;;;4956681;28;20066;-87
2024/03/13 09:52:41;;;;;;;3.17;2.22;;;;;;;;;;4972637;28;20046;-86
2024/03/13 09:55:21;;;;;;;1.95;1.77;;;;;;;;;;4977338;28;20047;-86
2024/03/13 09:57:49;;;;;;;2.33;1.90;;;;;;;;;;4962411;28;20121;-86
2024/03/13 10:00:19;;;;;;;1.98;1.88;;;;;;;;;;4957115;28;20113;-87
2024/03/13 10:02:50;;;;;;;2.70;2.17;;;;;;;;;;4957421;28;20058;-86
2024/03/13 10:05:24;;;;;;;2.00;1.80;;;;;;;;;;4959416;28;20073;-86
2024/03/13 10:07:53;;;;;;;2.95;2.60;;;;;;;;;;4957366;28;20055;-86
2024/03/13 10:10:27;;;;;;;2.40;1.88;;;;;;;;;;4958163;28;20047;-86
2024/03/13 10:12:58;;;;;;;3.30;1.70;;;;;;;;;;4959336;28;20567;-86
2024/03/13 10:15:26;;;;;;;2.58;1.60;;;;;;;;;;4958989;28;20055;-86
2024/03/13 10:18:07;;;;;;;1.80;1.58;;;;;;;;;;4958268;28;20062;-86
2024/03/13 10:20:56;;;;;;;2.70;1.50;;;;;;;;;;4980949;28;20500;-86
2024/03/13 10:23:44;;;;;;;3.33;1.73;;;;;;;;;;4980355;28;20054;-86
2024/03/13 10:26:12;;;;;;;1.60;1.50;;;;;;;;;;4991408;28;20085;-86
2024/03/13 10:28:48;;;;;;;2.22;1.70;;;;;;;;;;4991339;28;20074;-87
2024/03/13 10:31:19;;;;;;;1.83;1.55;;;;;;;;;;4974535;28;20050;-86
2024/03/13 10:33:56;;;;;;;2.08;1.33;;;;;;;;;;4985210;28;20066;-86
2024/03/13 10:36:45;;;;;;;1.90;1.10;;;;;;;;;;4983066;28;20421;-88
2024/03/13 10:39:42;;;;;;;1.25;1.10;;;;;;;;;;4975661;28;20109;-87
2024/03/13 10:42:13;;;;;;;2.03;1.75;;;;;;;;;;4984684;28;20052;-86
2024/03/13 10:44:47;;;;;;;2.05;1.27;;;;;;;;;;4973770;28;20532;-87
2024/03/13 10:47:17;;;;;;;1.30;1.20;;;;;;;;;;4966357;28;20062;-86
2024/03/13 10:49:50;;;;;;;1.63;1.23;;;;;;;;;;4961638;28;20129;-86
2024/03/13 10:52:21;;;;;;;1.88;1.65;;;;;;;;;;4972440;28;20106;-86
2024/03/13 10:54:48;;;;;;;2.25;1.20;;;;;;;;;;4957734;28;20057;-81
2024/03/13 10:57:18;;;;;;;2.85;1.33;;;;;;;;;;4978014;28;20117;-82
2024/03/13 10:59:48;;;;;;;3.92;1.50;;;;;;;;;;4983992;28;20054;-82
2024/03/13 11:02:19;;;;;;;3.65;1.60;;;;;;;;;;4983509;28;20078;-81
2024/03/13 11:04:49;;;;;;;1.10;1.00;;;;;;;;;;4965526;28;20064;-81
2024/03/13 11:07:20;;;;;;;3.17;1.45;;;;;;;;;;4976639;28;20485;-80
2024/03/13 11:09:50;;;;;;;2.17;1.15;;;;;;;;;;4984481;28;20054;-81
2024/03/13 11:12:26;;;;;;;1.10;1.00;;;;;;;;;;4982660;28;20501;-81
2024/03/13 11:14:56;;;;;;;3.15;1.20;;;;;;;;;;4983400;28;20047;-81
2024/03/13 11:17:25;;;;;;;1.95;1.50;;;;;;;;;;4965241;28;20069;-81
2024/03/13 11:19:55;;;;;;;1.35;1.15;;;;;;;;;;4983388;28;20097;-81
2024/03/13 11:22:23;;;;;;;3.92;1.38;;;;;;;;;;4967607;28;20064;-81
2024/03/13 11:24:50;;;;;;;1.35;1.00;;;;;;;;;;4982952;28;20090;-81
2024/03/13 11:27:17;;;;;;;1.42;1.25;;;;;;;;;;4966635;28;20054;-81
2024/03/13 11:29:51;;;;;;;1.30;1.20;;;;;;;;;;4967180;28;20065;-81
2024/03/13 11:32:18;;;;;;;2.13;1.42;;;;;;;;;;4980732;28;20049;-81
2024/03/13 11:34:49;;;;;;;1.83;1.60;;;;;;;;;;4982760;28;20493;-80
2024/03/13 11:37:21;;;;;;;3.47;1.60;;;;;;;;;;4967806;28;20476;-80
2024/03/13 11:39:48;;;;;;;2.10;1.70;;;;;;;;;;4983916;28;20065;-80
2024/03/13 11:42:17;;;;;;;2.13;1.58;;;;;;;;;;4967138;28;20093;-80
2024/03/13 11:44:49;;;;;;;4.13;1.73;;;;;;;;;;4967167;28;20058;-80
2024/03/13 11:47:24;;;;;;;5.22;1.65;;;;;;;;;;4966098;28;20065;-80
2024/03/13 11:49:57;;;;;;;1.90;1.70;;;;;;;;;;4982968;28;20110;-81
2024/03/13 11:52:24;;;;;;;1.75;1.52;;;;;;;;;;4982370;28;20424;-80
2024/03/13 11:55:05;;;;;;;1.90;1.40;;;;;;;;;;4969366;28;20050;-80
2024/03/13 11:57:33;;;;;;;2.50;1.58;;;;;;;;;;4968632;28;20653;-81
2024/03/13 12:00:05;;;;;;;3.38;1.50;;;;;;;;;;4963857;28;20051;-81
2024/03/13 12:02:40;;;;;;;2.58;1.48;;;;;;;;;;4984296;28;20207;-81
2024/03/13 12:05:07;;;;;;;2.20;1.38;;;;;;;;;;4967745;28;20121;-80
2024/03/13 12:07:37;;;;;;;2.25;2.03;;;;;;;;;;4981846;28;20055;-80
2024/03/13 12:10:09;;;;;;;2.67;2.15;;;;;;;;;;4964489;28;20047;-80
2024/03/13 12:12:41;;;;;;;3.63;2.45;;;;;;;;;;4964461;28;20054;-79
2024/03/13 12:15:11;;;;;;;3.58;2.10;;;;;;;;;;4974059;28;20051;-81
2024/03/13 12:17:44;;;;;;;2.78;2.20;;;;;;;;;;4979310;28;20148;-80
2024/03/13 12:20:14;;;;;;;2.17;1.98;;;;;;;;;;4963863;28;20086;-81
2024/03/13 12:22:43;;;;;;;3.72;2.45;;;;;;;;;;4964090;28;20065;-81
2024/03/13 12:25:12;;;;;;;3.65;1.83;;;;;;;;;;4963298;28;20062;-81
2024/03/13 12:27:56;;;;;;;1.75;1.38;;;;;;;;;;4963758;28;20061;-81
2024/03/13 12:30:25;;;;;;;1.70;1.60;;;;;;;;;;4962775;28;20314;-81
2024/03/13 12:32:57;;;;;;;;;;;;;;;;;;4979091;28;20187;-80
2024/03/13 12:35:25;;;;;;;1.75;1.65;;;;;;;;;;4978820;28;19973;-79
2024/03/13 12:37:57;;;;;;;2.70;2.30;;;;;;;;;;4975859;28;20061;-77
2024/03/13 12:40:25;;;;;;;;;;;;;;;;;;4962350;28;20421;-81
2024/03/13 12:42:52;;;;;;;2.40;2.20;;;;;;;;;;4979128;28;19922;-76
2024/03/13 12:45:19;;;;;;;3.65;2.20;;;;;;;;;;4968027;28;20069;-81
2024/03/13 12:47:46;;;;;;;2.50;2.03;;;;;;;;;;4969622;28;20078;-76
2024/03/13 12:50:15;;;;;;;2.75;1.65;;;;;;;;;;4972935;28;20051;-74
2024/03/13 12:52:46;;;;;;;2.90;1.83;;;;;;;;;;4982732;28;20050;-78
2024/03/13 12:55:19;;;;;;;1.98;1.73;;;;;;;;;;4982032;28;20054;-77
2024/03/13 12:57:48;;;;;;;2.00;1.80;;;;;;;;;;4959161;28;20051;-81
2024/03/13 13:00:21;;;;;;;2.53;1.60;;;;;;;;;;4951745;28;20066;-77
2024/03/13 13:02:48;;;;;;;;;;;;;;;;;;4974485;28;20061;-77
2024/03/13 13:05:15;;;;;;;1.90;1.80;;;;;;;;;;4976224;28;19922;-77
2024/03/13 13:07:52;;;;;;;2.45;1.85;;;;;;;;;;4976450;28;20527;-77
2024/03/13 13:10:22;;;;;;;2.08;1.90;;;;;;;;;;4976432;28;20055;-77
2024/03/13 13:12:53;;;;;;;1.63;1.52;;;;;;;;;;4975413;28;20138;-77
2024/03/13 13:15:23;;;;;;;1.40;1.30;;;;;;;;;;4976498;28;20082;-77
2024/03/13 13:17:50;;;;;;;1.88;1.63;;;;;;;;;;4976349;28;20058;-77
2024/03/13 13:20:18;;;;;;;1.60;1.50;;;;;;;;;;4975668;28;20042;-77
2024/03/13 13:22:47;;;;;;;1.88;1.67;;;;;;;;;;4975988;28;20054;-77
2024/03/13 13:25:17;;;;;;;2.03;1.92;;;;;;;;;;4977377;28;20082;-77
2024/03/13 13:27:48;;;;;;;2.53;1.83;;;;;;;;;;4975553;28;20042;-77
2024/03/13 13:30:20;;;;;;;3.35;1.95;;;;;;;;;;4976463;28;20050;-81
2024/03/13 13:32:51;;;;;;;2.00;1.88;;;;;;;;;;4978718;28;20058;-82
2024/03/13 13:35:18;;;;;;;2.60;2.28;;;;;;;;;;4962782;28;20137;-82
2024/03/13 13:37:52;;;;;;;2.58;2.20;;;;;;;;;;4977247;28;20062;-82
2024/03/13 13:40:20;;;;;;;2.28;2.08;;;;;;;;;;4961703;28;20576;-81
2024/03/13 13:42:50;;;;;;;3.38;2.22;;;;;;;;;;4960845;28;20059;-82
2024/03/13 13:45:19;;;;;;;2.92;2.22;;;;;;;;;;4977934;28;20058;-81
2024/03/13 13:47:51;;;;;;;2.40;1.85;;;;;;;;;;4958151;28;20065;-82
2024/03/13 13:50:20;;;;;;;1.83;1.73;;;;;;;;;;4968756;28;20058;-81
2024/03/13 13:52:47;;;;;;;2.20;1.90;;;;;;;;;;4960982;28;20115;-80
2024/03/13 13:55:17;;;;;;;3.53;2.00;;;;;;;;;;4959683;28;20043;-81
2024/03/13 13:57:48;;;;;;;2.17;1.70;;;;;;;;;;4973230;28;20318;-81
2024/03/13 14:00:20;;;;;;;2.20;1.42;;;;;;;;;;4960666;28;20055;-80
2024/03/13 14:02:52;;;;;;;1.60;1.50;;;;;;;;;;4975341;28;20193;-81
2024/03/13 14:05:22;;;;;;;2.15;1.60;;;;;;;;;;4959290;28;20234;-81
2024/03/13 14:07:51;;;;;;;1.83;1.70;;;;;;;;;;4975614;28;20082;-81
2024/03/13 14:10:18;;;;;;;1.90;1.30;;;;;;;;;;4960007;28;20038;-81
2024/03/13 14:12:47;;;;;;;1.50;1.40;;;;;;;;;;4974830;28;20051;-80
2024/03/13 14:15:18;;;;;;;1.88;1.55;;;;;;;;;;4967066;28;20061;-80
2024/03/13 14:17:47;;;;;;;2.30;2.10;;;;;;;;;;4975433;28;20059;-80
2024/03/13 14:20:23;;;;;;;2.05;1.20;;;;;;;;;;4977492;28;20054;-80
2024/03/13 14:22:53;;;;;;;2.72;1.85;;;;;;;;;;4992733;28;20505;-81
2024/03/13 14:25:26;;;;;;;2.10;1.90;;;;;;;;;;4960616;28;20061;-81
2024/03/13 14:27:54;;;;;;;2.17;1.98;;;;;;;;;;4991934;28;20047;-80
2024/03/13 14:30:22;;;;;;;2.63;2.00;;;;;;;;;;4977627;28;20129;-81
2024/03/13 14:32:52;;;;;;;2.85;2.25;;;;;;;;;;4961998;28;20503;-81
2024/03/13 14:35:21;;;;;;;2.28;2.05;;;;;;;;;;4984768;28;20055;-81
2024/03/13 14:37:49;;;;;;;2.72;2.30;;;;;;;;;;4966470;28;20066;-81
2024/03/13 14:40:17;;;;;;;4.57;2.30;;;;;;;;;;4997231;28;20056;-84
2024/03/13 14:42:45;;;;;;;2.53;1.60;;;;;;;;;;4957866;28;20097;-81
2024/03/13 14:45:14;;;;;;;2.85;1.30;;;;;;;;;;4968745;28;20141;-81
2024/03/13 14:47:43;;;;;;;1.83;1.08;;;;;;;;;;4947624;28;20101;-80
2024/03/13 14:50:17;;;;;;;2.42;1.10;;;;;;;;;;4969871;28;20046;-81
2024/03/13 14:52:47;;;;;;;3.60;1.13;;;;;;;;;;4970931;28;20061;-81
2024/03/13 14:55:29;;;;;;;2.83;1.25;;;;;;;;;;4957209;28;20461;-80
2024/03/13 14:57:59;;;;;;;2.88;1.13;;;;;;;;;;4955972;28;20148;-82
2024/03/13 15:00:26;;;;;;;3.13;1.20;;;;;;;;;;4970362;28;20051;-80
2024/03/13 15:02:54;;;;;;;1.75;1.10;;;;;;;;;;4972785;28;20082;-82
2024/03/13 15:05:26;;;;;;;2.10;1.13;;;;;;;;;;4972157;28;20046;-80
2024/03/13 15:08:03;;;;;;;5.63;1.40;;;;;;;;;;4983492;28;20137;-80
2024/03/13 15:10:31;;;;;;;1.15;1.05;;;;;;;;;;4961970;28;20567;-81
2024/03/13 15:13:05;;;;;;;4.43;1.08;;;;;;;;;;4978667;28;20088;-80
2024/03/13 15:15:32;;;;;;;2.92;1.20;;;;;;;;;;4978298;28;20055;-80
2024/03/13 15:18:00;;;;;;;2.20;1.02;;;;;;;;;;4977684;28;20058;-80
2024/03/13 15:20:32;;;;;;;0.95;0.90;;;;;;;;;;4958939;28;20138;-80
2024/03/13 15:22:59;;;;;;;1.25;1.15;;;;;;;;;;4958231;28;20057;-80